createdAt,value
2023-05-04T00:02:12.442Z,5.03
2023-05-04T00:04:42.754Z,7.38
2023-05-04T00:07:12.305Z,6.03
2023-05-04T00:09:40.023Z,6.85
2023-05-04T00:12:08.067Z,6.90
2023-05-04T00:14:36.667Z,7.65
2023-05-04T00:17:06.441Z,5.32
2023-05-04T00:19:34.194Z,8.15
2023-05-04T00:22:01.910Z,7.22
2023-05-04T00:24:30.890Z,7.25
2023-05-04T00:27:00.690Z,7.65
2023-05-04T00:29:28.545Z,7.82
2023-05-04T00:31:56.442Z,7.43
2023-05-04T00:34:24.512Z,5.85
2023-05-04T00:36:52.187Z,6.50
2023-05-04T00:39:19.849Z,5.90
2023-05-04T00:41:48.816Z,5.53
2023-05-04T00:44:17.157Z,6.93
2023-05-04T00:46:44.894Z,6.07
2023-05-04T00:49:12.681Z,5.38
2023-05-04T00:51:41.412Z,6.28
2023-05-04T00:54:09.739Z,6.18
2023-05-04T00:56:42.331Z,6.68
2023-05-04T00:59:11.272Z,5.95
2023-05-04T01:01:38.939Z,5.53
2023-05-04T01:04:06.829Z,6.15
2023-05-04T01:06:41.534Z,5.70
2023-05-04T01:09:23.519Z,6.20
2023-05-04T01:11:54.775Z,6.32
2023-05-04T01:14:23.890Z,5.18
2023-05-04T01:16:54.088Z,6.32
2023-05-04T01:19:21.818Z,5.78
2023-05-04T01:21:50.792Z,5.95
2023-05-04T01:24:19.066Z,5.68
2023-05-04T01:26:48.020Z,5.50
2023-05-04T01:29:17.615Z,6.07
2023-05-04T01:31:46.484Z,6.05
2023-05-04T01:34:14.890Z,4.97
2023-05-04T01:36:42.782Z,5.63
2023-05-04T01:39:11.887Z,5.95
2023-05-04T01:41:39.665Z,6.38
2023-05-04T01:44:07.345Z,7.38
2023-05-04T01:46:35.160Z,5.80
2023-05-04T01:49:02.832Z,6.28
2023-05-04T01:51:30.429Z,5.82
2023-05-04T01:53:58.377Z,5.45
2023-05-04T01:56:27.379Z,6.45
2023-05-04T01:58:54.978Z,6.57
2023-05-04T02:01:22.763Z,5.55
2023-05-04T02:03:50.582Z,6.30
2023-05-04T02:06:18.281Z,7.43
2023-05-04T02:08:46.385Z,5.43
2023-05-04T02:11:14.725Z,4.93
2023-05-04T02:13:44.583Z,5.18
2023-05-04T02:16:12.548Z,6.32
2023-05-04T02:18:40.352Z,5.22
2023-05-04T02:21:07.965Z,6.63
2023-05-04T02:23:35.597Z,5.70
2023-05-04T02:26:03.223Z,6.07
2023-05-04T02:28:30.877Z,6.15
2023-05-04T02:30:59.879Z,6.53
2023-05-04T02:33:27.697Z,5.20
2023-05-04T02:35:55.390Z,7.13
2023-05-04T02:38:23.070Z,6.78
2023-05-04T02:40:50.670Z,5.63
2023-05-04T02:43:19.023Z,5.25
2023-05-04T02:45:46.669Z,6.00
2023-05-04T02:48:18.429Z,6.20
2023-05-04T02:50:46.521Z,5.45
2023-05-04T02:53:20.298Z,4.70
2023-05-04T02:55:47.933Z,6.30
2023-05-04T02:58:16.704Z,4.82
2023-05-04T03:00:44.293Z,5.45
2023-05-04T03:03:12.526Z,5.25
2023-05-04T03:05:41.533Z,6.18
2023-05-04T03:08:09.309Z,5.95
2023-05-04T03:10:37.002Z,5.65
2023-05-04T03:13:06.244Z,5.60
2023-05-04T03:15:34.246Z,6.72
2023-05-04T03:18:01.989Z,5.40
2023-05-04T03:20:29.686Z,4.80
2023-05-04T03:22:58.691Z,4.93
2023-05-04T03:25:26.447Z,6.63
2023-05-04T03:27:54.080Z,5.55
2023-05-04T03:30:21.795Z,7.13
2023-05-04T03:32:49.607Z,5.57
2023-05-04T03:35:24.358Z,6.15
2023-05-04T03:40:24.184Z,5.03
2023-05-04T03:42:52.604Z,5.22
2023-05-04T03:45:20.558Z,4.63
2023-05-04T03:47:48.182Z,5.65
2023-05-04T03:50:15.837Z,5.15
2023-05-04T03:52:43.518Z,5.55
2023-05-04T03:55:11.574Z,5.05
2023-05-04T03:57:41.399Z,6.35
2023-05-04T04:00:09.574Z,6.45
2023-05-04T04:02:37.365Z,5.43
2023-05-04T04:05:06.581Z,5.80
2023-05-04T04:07:34.305Z,5.72
2023-05-04T04:10:02.008Z,6.07
2023-05-04T04:12:29.802Z,4.55
2023-05-04T04:14:58.926Z,5.72
2023-05-04T04:17:26.999Z,5.68
2023-05-04T04:19:54.659Z,5.20
2023-05-04T04:22:22.396Z,5.97
2023-05-04T04:24:50.796Z,5.43
2023-05-04T04:27:18.691Z,5.40
2023-05-04T04:29:46.438Z,5.47
2023-05-04T04:32:15.704Z,5.45
2023-05-04T04:34:43.541Z,6.20
2023-05-04T04:37:11.962Z,6.05
2023-05-04T04:39:39.900Z,5.80
2023-05-04T04:42:08.093Z,6.07
2023-05-04T04:44:36.010Z,6.15
2023-05-04T04:47:04.060Z,5.40
2023-05-04T04:49:33.191Z,5.10
2023-05-04T04:52:02.115Z,4.85
2023-05-04T04:54:29.987Z,5.75
2023-05-04T04:56:57.698Z,5.63
2023-05-04T04:59:25.669Z,6.00
2023-05-04T05:01:53.533Z,5.82
2023-05-04T05:04:22.443Z,6.28
2023-05-04T05:06:51.667Z,5.65
2023-05-04T05:09:19.330Z,6.18
2023-05-04T05:11:46.968Z,6.05
2023-05-04T05:14:14.574Z,6.55
2023-05-04T05:16:42.258Z,5.72
2023-05-04T05:19:10.203Z,5.78
2023-05-04T05:21:37.840Z,5.35
2023-05-04T05:24:07.062Z,7.75
2023-05-04T05:26:34.867Z,6.72
2023-05-04T05:29:02.609Z,6.40
2023-05-04T05:31:30.329Z,5.90
2023-05-04T05:33:58.800Z,6.47
2023-05-04T05:36:26.400Z,6.30
2023-05-04T05:38:54.130Z,5.15
2023-05-04T05:41:24.110Z,6.47
2023-05-04T05:43:51.711Z,5.40
2023-05-04T05:46:19.430Z,6.32
2023-05-04T05:48:47.682Z,6.65
2023-05-04T05:51:15.306Z,6.88
2023-05-04T05:53:43.415Z,5.20
2023-05-04T05:56:11.316Z,6.53
2023-05-04T05:58:40.746Z,6.47
2023-05-04T06:01:08.445Z,6.22
2023-05-04T06:03:36.300Z,5.43
2023-05-04T06:06:04.794Z,6.07
2023-05-04T06:09:08.224Z,6.10
2023-05-04T06:11:35.841Z,5.85
2023-05-04T06:14:04.936Z,5.72
2023-05-04T06:16:32.894Z,6.55
2023-05-04T06:19:00.921Z,7.13
2023-05-04T06:21:28.568Z,6.38
2023-05-04T06:23:56.201Z,5.95
2023-05-04T06:26:24.113Z,5.85
2023-05-04T06:28:53.306Z,5.55
2023-05-04T06:31:24.174Z,6.82
2023-05-04T06:33:51.896Z,5.68
2023-05-04T06:36:19.708Z,5.82
2023-05-04T06:38:47.362Z,6.85
2023-05-04T06:41:14.958Z,6.53
2023-05-04T06:43:43.904Z,6.78
2023-05-04T06:46:11.752Z,6.10
2023-05-04T06:48:41.268Z,6.32
2023-05-04T06:51:09.388Z,6.68
2023-05-04T06:53:37.300Z,6.72
2023-05-04T06:56:05.200Z,6.68
2023-05-04T06:58:32.928Z,5.93
2023-05-04T07:01:00.628Z,6.78
2023-05-04T07:03:28.408Z,6.25
2023-05-04T07:05:57.780Z,6.47
2023-05-04T07:08:25.441Z,6.32
2023-05-04T07:10:53.292Z,6.28
2023-05-04T07:13:20.950Z,6.82
2023-05-04T07:15:48.631Z,6.60
2023-05-04T07:18:16.282Z,6.10
2023-05-04T07:20:43.989Z,6.70
2023-05-04T07:23:13.093Z,6.95
2023-05-04T07:25:40.795Z,6.50
2023-05-04T07:28:08.482Z,6.00
2023-05-04T07:30:36.126Z,5.60
2023-05-04T07:33:04.044Z,6.40
2023-05-04T07:35:31.828Z,5.80
2023-05-04T07:37:59.435Z,6.22
2023-05-04T07:40:28.440Z,6.53
2023-05-04T07:42:56.448Z,6.28
2023-05-04T07:45:24.089Z,6.80
2023-05-04T07:47:53.127Z,5.55
2023-05-04T07:50:20.959Z,5.78
2023-05-04T07:52:49.441Z,5.90
2023-05-04T07:55:17.151Z,5.55
2023-05-04T07:57:46.142Z,6.72
2023-05-04T08:00:14.836Z,5.57
2023-05-04T08:02:42.538Z,6.07
2023-05-04T08:05:10.720Z,6.00
2023-05-04T08:07:38.349Z,5.68
2023-05-04T08:10:06.465Z,5.75
2023-05-04T08:12:34.877Z,5.78
2023-05-04T08:15:04.887Z,5.45
2023-05-04T08:17:34.734Z,5.43
2023-05-04T08:20:02.844Z,5.10
2023-05-04T08:22:30.491Z,4.82
2023-05-04T08:24:58.132Z,5.38
2023-05-04T08:27:25.801Z,5.45
2023-05-04T08:29:53.543Z,5.13
2023-05-04T08:32:22.666Z,4.18
2023-05-04T08:34:50.690Z,5.20
2023-05-04T08:37:18.340Z,4.57
2023-05-04T08:39:46.337Z,5.18
2023-05-04T08:42:13.995Z,4.57
2023-05-04T08:44:43.944Z,4.50
2023-05-04T08:47:12.358Z,5.00
2023-05-04T08:49:41.360Z,4.97
2023-05-04T08:52:10.290Z,4.95
2023-05-04T08:54:39.887Z,4.88
2023-05-04T08:57:08.180Z,3.97
2023-05-04T08:59:38.586Z,4.00
2023-05-04T09:02:06.576Z,4.90
2023-05-04T09:04:38.839Z,5.72
2023-05-04T09:07:07.888Z,4.63
2023-05-04T09:09:35.691Z,4.93
2023-05-04T09:12:03.479Z,4.85
2023-05-04T09:14:35.648Z,4.55
2023-05-04T09:17:03.773Z,5.35
2023-05-04T09:19:34.754Z,5.15
2023-05-04T09:22:02.648Z,5.60
2023-05-04T09:24:33.110Z,4.80
2023-05-04T09:27:10.634Z,5.03
2023-05-04T09:29:40.625Z,5.20
2023-05-04T09:32:12.383Z,4.85
2023-05-04T09:34:47.761Z,5.50
2023-05-04T09:37:15.695Z,4.80
2023-05-04T09:39:55.742Z,5.10
2023-05-04T09:42:24.015Z,4.80
2023-05-04T09:45:03.856Z,5.50
2023-05-04T09:47:35.607Z,5.00
2023-05-04T09:50:13.064Z,5.32
2023-05-04T09:52:41.626Z,5.32
2023-05-04T09:55:12.503Z,5.30
2023-05-04T09:57:41.209Z,6.10
2023-05-04T10:00:09.760Z,4.97
2023-05-04T10:02:37.950Z,5.13
2023-05-04T10:05:07.910Z,4.72
2023-05-04T10:07:35.897Z,4.53
2023-05-04T10:10:03.765Z,5.22
2023-05-04T10:12:32.910Z,4.28
2023-05-04T10:15:01.050Z,4.78
2023-05-04T10:17:34.847Z,4.53
2023-05-04T10:20:18.478Z,4.80
2023-05-04T10:22:54.119Z,4.43
2023-05-04T10:25:37.209Z,4.53
2023-05-04T10:28:10.450Z,5.18
2023-05-04T10:30:40.159Z,4.80
2023-05-04T10:33:07.902Z,5.43
2023-05-04T10:35:35.637Z,4.97
2023-05-04T10:38:04.469Z,4.30
2023-05-04T10:40:38.415Z,4.88
2023-05-04T10:43:07.967Z,4.30
2023-05-04T10:45:36.066Z,4.55
2023-05-04T10:48:05.130Z,4.85
2023-05-04T10:50:44.862Z,3.88
2023-05-04T10:53:12.619Z,4.43
2023-05-04T10:55:40.796Z,4.13
2023-05-04T10:58:11.194Z,4.00
2023-05-04T11:00:39.204Z,4.45
2023-05-04T11:03:08.367Z,4.18
2023-05-04T11:05:43.403Z,3.97
2023-05-04T11:10:38.570Z,4.07
2023-05-04T11:13:08.033Z,3.92
2023-05-04T11:15:46.069Z,4.63
2023-05-04T11:18:14.136Z,3.55
2023-05-04T11:20:42.530Z,4.35
2023-05-04T11:23:10.716Z,4.40
2023-05-04T11:25:38.605Z,4.25
2023-05-04T11:28:06.719Z,4.00
2023-05-04T11:30:35.655Z,3.70
2023-05-04T11:33:11.831Z,4.53
2023-05-04T11:35:39.867Z,4.05
2023-05-04T11:38:08.279Z,4.00
2023-05-04T11:40:36.592Z,3.90
2023-05-04T11:43:04.551Z,3.60
2023-05-04T11:45:33.876Z,3.53
2023-05-04T11:48:24.085Z,4.28
2023-05-04T11:50:52.006Z,4.13
2023-05-04T11:53:21.682Z,3.90
2023-05-04T11:55:49.529Z,3.85
2023-05-04T11:58:24.294Z,3.88
2023-05-04T12:00:56.118Z,4.47
2023-05-04T12:03:32.538Z,4.78
2023-05-04T12:06:07.710Z,4.70
2023-05-04T12:08:38.076Z,4.68
2023-05-04T12:11:16.327Z,3.60
2023-05-04T12:13:44.485Z,3.63
2023-05-04T12:16:12.818Z,4.32
2023-05-04T12:18:42.231Z,3.55
2023-05-04T12:21:10.782Z,4.55
2023-05-04T12:23:38.414Z,4.30
2023-05-04T12:26:06.698Z,3.50
2023-05-04T12:28:34.586Z,3.83
2023-05-04T12:31:02.266Z,4.63
2023-05-04T12:33:30.080Z,3.50
2023-05-04T12:36:00.028Z,3.70
2023-05-04T12:38:27.848Z,4.25
2023-05-04T12:40:55.846Z,3.70
2023-05-04T12:43:24.072Z,3.42
2023-05-04T12:45:51.956Z,3.25
2023-05-04T12:48:20.414Z,3.40
2023-05-04T12:50:48.585Z,3.22
2023-05-04T12:53:18.096Z,3.38
2023-05-04T12:55:46.104Z,3.97
2023-05-04T12:58:13.774Z,3.05
2023-05-04T13:00:48.355Z,3.72
2023-05-04T13:05:49.791Z,4.72
2023-05-04T13:08:19.820Z,4.43
2023-05-04T13:10:48.069Z,4.07
2023-05-04T13:13:17.868Z,3.42
2023-05-04T13:15:45.885Z,2.90
2023-05-04T13:18:13.730Z,2.60
2023-05-04T13:20:41.804Z,6.63
2023-05-04T13:23:09.599Z,2.67
2023-05-04T13:25:38.652Z,3.33
2023-05-04T13:28:06.354Z,2.85
2023-05-04T13:30:34.061Z,2.40
2023-05-04T13:33:03.799Z,2.85
2023-05-04T13:35:35.620Z,2.78
2023-05-04T13:38:03.245Z,3.55
2023-05-04T13:40:30.890Z,2.83
2023-05-04T13:42:59.988Z,2.40
2023-05-04T13:45:27.817Z,2.65
2023-05-04T13:47:55.502Z,2.42
2023-05-04T13:50:23.310Z,2.85
2023-05-04T13:52:50.846Z,2.55
2023-05-04T13:55:19.886Z,2.55
2023-05-04T13:57:47.929Z,2.80
2023-05-04T14:00:20.871Z,2.70
2023-05-04T14:02:48.642Z,2.58
2023-05-04T14:05:17.393Z,2.47
2023-05-04T14:07:45.134Z,2.50
2023-05-04T14:10:13.095Z,2.10
2023-05-04T14:12:40.801Z,2.42
2023-05-04T14:15:09.087Z,2.50
2023-05-04T14:17:39.691Z,2.70
2023-05-04T14:20:08.863Z,2.45
2023-05-04T14:22:38.005Z,2.65
2023-05-04T14:25:06.659Z,2.40
2023-05-04T14:27:35.469Z,2.00
2023-05-04T14:30:03.158Z,2.72
2023-05-04T14:32:30.892Z,2.22
2023-05-04T14:35:06.752Z,1.90
2023-05-04T14:37:35.973Z,2.67
2023-05-04T14:40:04.340Z,2.35
2023-05-04T14:42:32.466Z,2.47
2023-05-04T14:45:00.541Z,2.97
2023-05-04T14:47:29.718Z,1.95
2023-05-04T14:49:58.437Z,2.38
2023-05-04T14:52:27.491Z,2.40
2023-05-04T14:54:55.139Z,2.63
2023-05-04T14:57:23.402Z,2.25
2023-05-04T14:59:51.212Z,2.28
2023-05-04T15:02:19.363Z,2.08
2023-05-04T15:04:47.409Z,2.15
2023-05-04T15:07:16.485Z,2.13
2023-05-04T15:09:45.499Z,2.10
2023-05-04T15:12:13.179Z,2.20
2023-05-04T15:14:40.778Z,2.08
2023-05-04T15:17:08.446Z,2.40
2023-05-04T15:19:37.585Z,2.03
2023-05-04T15:22:05.384Z,2.13
2023-05-04T15:24:33.319Z,1.85
2023-05-04T15:27:03.767Z,2.00
2023-05-04T15:29:33.530Z,2.20
2023-05-04T15:32:01.274Z,2.25
2023-05-04T15:34:28.977Z,2.22
2023-05-04T15:36:56.972Z,2.38
2023-05-04T15:39:27.047Z,2.20
2023-05-04T15:41:54.677Z,2.22
2023-05-04T15:44:24.254Z,2.40
2023-05-04T15:46:52.008Z,2.20
2023-05-04T15:49:19.645Z,2.60
2023-05-04T15:51:47.417Z,2.72
2023-05-04T15:54:15.093Z,2.30
2023-05-04T15:56:42.848Z,2.35
2023-05-04T15:59:10.470Z,3.10
2023-05-04T16:01:40.113Z,2.72
2023-05-04T16:04:08.051Z,2.83
2023-05-04T16:06:35.771Z,3.00
2023-05-04T16:09:04.150Z,3.00
2023-05-04T16:11:33.124Z,2.75
2023-05-04T16:14:01.135Z,3.20
2023-05-04T16:16:51.836Z,3.22
2023-05-04T16:19:23.510Z,3.13
2023-05-04T16:21:51.215Z,2.85
2023-05-04T16:24:18.848Z,2.90
2023-05-04T16:26:49.795Z,3.10
2023-05-04T16:29:17.669Z,3.00
2023-05-04T16:31:47.383Z,3.10
2023-05-04T16:34:14.983Z,2.80
2023-05-04T16:36:51.909Z,2.90
2023-05-04T16:39:23.699Z,2.85
2023-05-04T16:41:51.638Z,3.38
2023-05-04T16:44:19.287Z,3.28
2023-05-04T16:46:47.065Z,3.25
2023-05-04T16:49:14.999Z,3.00
2023-05-04T16:51:42.860Z,3.00
2023-05-04T16:54:11.908Z,3.28
2023-05-04T16:56:40.223Z,2.75
2023-05-04T16:59:07.837Z,3.08
2023-05-04T17:01:36.163Z,3.30
2023-05-04T17:04:04.159Z,3.10
2023-05-04T17:06:32.223Z,2.97
2023-05-04T17:08:59.999Z,3.50
2023-05-04T17:11:29.238Z,3.35
2023-05-04T17:13:57.070Z,3.58
2023-05-04T17:16:24.916Z,3.58
2023-05-04T17:18:52.632Z,3.63
2023-05-04T17:21:20.663Z,3.85
2023-05-04T17:23:51.095Z,3.28
2023-05-04T17:26:18.777Z,3.22
2023-05-04T17:28:47.927Z,3.42
2023-05-04T17:31:16.615Z,3.10
2023-05-04T17:33:44.392Z,3.42
2023-05-04T17:36:13.208Z,3.45
2023-05-04T17:38:41.231Z,3.50
2023-05-04T17:41:09.830Z,3.65
2023-05-04T17:43:37.731Z,3.20
2023-05-04T17:46:23.657Z,2.88
2023-05-04T17:48:53.808Z,3.67
2023-05-04T17:51:24.763Z,3.10
2023-05-04T17:53:52.406Z,3.10
2023-05-04T17:56:21.322Z,3.47
2023-05-04T17:58:48.939Z,2.95
2023-05-04T18:01:16.997Z,3.53
2023-05-04T18:03:44.867Z,3.30
2023-05-04T18:06:14.088Z,3.47
2023-05-04T18:08:41.862Z,4.25
2023-05-04T18:11:09.539Z,2.95
2023-05-04T18:13:37.511Z,3.90
2023-05-04T18:16:05.555Z,3.50
2023-05-04T18:18:33.593Z,3.78
2023-05-04T18:21:01.583Z,3.72
2023-05-04T18:23:43.318Z,3.20
2023-05-04T18:26:11.240Z,3.30
2023-05-04T18:28:38.898Z,3.45
2023-05-04T18:31:06.852Z,3.58
2023-05-04T18:33:34.903Z,3.95
2023-05-04T18:36:02.637Z,3.50
2023-05-04T18:38:31.717Z,3.65
2023-05-04T18:40:59.341Z,4.28
2023-05-04T18:43:26.967Z,3.70
2023-05-04T18:45:55.062Z,4.13
2023-05-04T18:48:23.082Z,5.20
2023-05-04T18:50:57.148Z,4.50
2023-05-04T18:53:25.004Z,3.90
2023-05-04T18:56:06.184Z,4.18
2023-05-04T18:58:34.269Z,4.57
2023-05-04T19:01:02.042Z,4.72
2023-05-04T19:03:29.879Z,4.30
2023-05-04T19:06:00.336Z,5.07
2023-05-04T19:08:28.824Z,4.18
2023-05-04T19:10:58.543Z,4.32
2023-05-04T19:13:27.566Z,5.03
2023-05-04T19:15:55.883Z,4.88
2023-05-04T19:18:24.614Z,4.95
2023-05-04T19:20:52.421Z,5.28
2023-05-04T19:23:20.478Z,5.88
2023-05-04T19:25:48.140Z,6.38
2023-05-04T19:28:16.121Z,6.55
2023-05-04T19:30:45.085Z,5.95
2023-05-04T19:33:12.840Z,6.45
2023-05-04T19:35:40.584Z,5.97
2023-05-04T19:38:08.570Z,6.97
2023-05-04T19:40:42.764Z,7.15
2023-05-04T19:43:10.602Z,6.60
2023-05-04T19:45:39.210Z,7.07
2023-05-04T19:48:08.286Z,6.80
2023-05-04T19:50:35.919Z,6.97
2023-05-04T19:53:04.128Z,6.63
2023-05-04T19:55:32.556Z,5.85
2023-05-04T19:58:00.370Z,6.55
2023-05-04T20:00:28.052Z,6.22
2023-05-04T20:02:55.984Z,5.95
2023-05-04T20:05:25.044Z,6.63
2023-05-04T20:07:52.768Z,6.07
2023-05-04T20:10:21.864Z,7.22
2023-05-04T20:12:49.647Z,6.30
2023-05-04T20:15:17.426Z,6.30
2023-05-04T20:17:45.484Z,6.35
2023-05-04T20:20:19.085Z,6.65
2023-05-04T20:22:49.185Z,6.85
2023-05-04T20:25:17.033Z,7.20
2023-05-04T20:27:45.415Z,7.35
2023-05-04T20:30:13.344Z,6.80
2023-05-04T20:32:41.169Z,7.22
2023-05-04T20:35:09.701Z,7.07
2023-05-04T20:37:38.781Z,7.45
2023-05-04T20:40:09.178Z,7.18
2023-05-04T20:42:38.534Z,7.35
2023-05-04T20:45:07.390Z,7.25
2023-05-04T20:47:37.302Z,6.35
2023-05-04T20:50:05.422Z,7.65
2023-05-04T20:52:33.180Z,7.90
2023-05-04T20:55:01.530Z,7.80
2023-05-04T20:57:30.790Z,8.02
2023-05-04T20:59:58.464Z,7.35
2023-05-04T21:02:26.146Z,7.57
2023-05-04T21:04:53.945Z,7.70
2023-05-04T21:07:21.549Z,8.70
2023-05-04T21:09:49.212Z,7.65
2023-05-04T21:12:17.514Z,8.38
2023-05-04T21:14:46.516Z,8.60
2023-05-04T21:17:14.191Z,8.25
2023-05-04T21:19:41.865Z,8.40
2023-05-04T21:22:09.548Z,8.13
2023-05-04T21:24:37.286Z,7.50
2023-05-04T21:27:05.033Z,7.57
2023-05-04T21:29:34.596Z,7.30
2023-05-04T21:32:03.846Z,6.68
2023-05-04T21:34:31.471Z,8.40
2023-05-04T21:36:59.102Z,6.90
2023-05-04T21:39:27.638Z,8.38
2023-05-04T21:41:55.258Z,6.20
2023-05-04T21:44:23.001Z,5.22
2023-05-04T21:46:50.732Z,4.97
2023-05-04T21:49:19.729Z,3.67
2023-05-04T21:51:47.601Z,2.80
2023-05-04T21:54:15.278Z,2.00
2023-05-04T21:56:42.998Z,2.03
2023-05-04T21:59:10.640Z,1.65
2023-05-04T22:01:38.363Z,1.95
2023-05-04T22:04:06.913Z,1.48
2023-05-04T22:06:36.742Z,1.60
2023-05-04T22:09:05.421Z,1.65
2023-05-04T22:11:33.173Z,1.25
2023-05-04T22:14:00.830Z,1.45
2023-05-04T22:16:28.967Z,1.20
2023-05-04T22:18:56.738Z,1.50
2023-05-04T22:21:24.351Z,1.20
2023-05-04T22:23:53.334Z,1.40
2023-05-04T22:26:21.073Z,1.33
2023-05-04T22:28:48.695Z,1.50
2023-05-04T22:31:16.378Z,1.65
2023-05-04T22:33:44.138Z,2.40
2023-05-04T22:36:12.601Z,2.20
2023-05-04T22:38:42.514Z,1.83
2023-05-04T22:41:11.507Z,2.65
2023-05-04T22:43:39.104Z,2.15
2023-05-04T22:46:06.930Z,2.80
2023-05-04T22:48:34.648Z,2.65
2023-05-04T22:51:02.299Z,2.95
2023-05-04T22:53:29.977Z,2.88
2023-05-04T22:55:57.745Z,3.88
2023-05-04T22:58:27.146Z,4.32
2023-05-04T23:00:54.789Z,3.55
2023-05-04T23:03:22.558Z,4.15
2023-05-04T23:05:50.336Z,4.35
2023-05-04T23:08:17.951Z,4.57
2023-05-04T23:10:46.435Z,5.30
2023-05-04T23:13:14.300Z,4.63
2023-05-04T23:15:43.500Z,3.80
2023-05-04T23:18:11.936Z,4.72
2023-05-04T23:20:39.534Z,4.50
2023-05-04T23:23:07.152Z,5.18
2023-05-04T23:25:34.788Z,4.80
2023-05-04T23:28:02.392Z,4.40
2023-05-04T23:30:30.062Z,4.90
2023-05-04T23:32:59.620Z,5.20
2023-05-04T23:35:28.172Z,4.78
2023-05-04T23:37:56.868Z,4.35
2023-05-04T23:40:24.650Z,3.65
2023-05-04T23:42:54.054Z,3.50
2023-05-04T23:45:21.756Z,3.08
2023-05-04T23:47:49.710Z,3.13
2023-05-04T23:50:18.817Z,3.10
2023-05-04T23:52:46.423Z,2.90
2023-05-04T23:55:14.636Z,2.75
2023-05-04T23:57:44.122Z,2.90
